Isle of North Uist, United Kingdom
Current Conditions -  °F | °C
As of 11:50 AM on Thursday 23 Oct 2014 (Local Time) from EGPL Reporting Station
Rain Showers Rain Showers  
Wind Chill: 54°   Ceiling: Unl
Heat Index: 54°   Visibility: 6mi
Dew Point: 48°   Wind: 17mph
Humidity: 82%   Direction: 230°SW
Pressure: 29.62"   Gusts: NA
Location:  57.6°N, 7.16°W
Report Text: EGPL 231050Z 23015KT 9999 VCSH SCT016 SCT030 12/09 Q1003
Loading
Personal Weather Stations






























Interactive Weather Map
Tropical Storm Tracking
New forecast layout! Learn more

10-Day Weather Forecast

Advertisements
Track Severe Weather on mobile